createdAt,value
2023-04-23T00:02:19.683Z,20.91
2023-04-23T00:04:54.261Z,20.88
2023-04-23T00:07:23.830Z,20.88
2023-04-23T00:09:51.186Z,20.87
2023-04-23T00:12:21.122Z,20.87
2023-04-23T00:14:48.111Z,20.85
2023-04-23T00:17:14.792Z,20.87
2023-04-23T00:19:41.526Z,20.87
2023-04-23T00:22:08.258Z,20.85
2023-04-23T00:24:37.125Z,20.86
2023-04-23T00:27:05.995Z,20.87
2023-04-23T00:29:34.975Z,20.86
2023-04-23T00:32:03.799Z,20.85
2023-04-23T00:34:33.060Z,20.86
2023-04-23T00:36:59.710Z,20.84
2023-04-23T00:39:28.534Z,20.85
2023-04-23T00:41:57.308Z,20.86
2023-04-23T00:44:24.369Z,20.84
2023-04-23T00:46:53.147Z,20.83
2023-04-23T00:49:22.018Z,20.84
2023-04-23T00:51:48.626Z,20.83
2023-04-23T00:54:17.817Z,20.83
2023-04-23T00:56:44.558Z,20.83
2023-04-23T00:59:11.217Z,20.84
2023-04-23T01:01:41.054Z,20.83
2023-04-23T01:04:10.160Z,20.83
2023-04-23T01:06:39.108Z,20.83
2023-04-23T01:09:09.909Z,20.83
2023-04-23T01:11:38.286Z,20.82
2023-04-23T01:14:08.177Z,20.82
2023-04-23T01:16:38.537Z,20.82
2023-04-23T01:19:08.932Z,20.81
2023-04-23T01:21:36.326Z,20.81
2023-04-23T01:24:06.048Z,20.82
2023-04-23T01:26:32.782Z,20.81
2023-04-23T01:29:02.031Z,20.80
2023-04-23T01:31:28.932Z,20.81
2023-04-23T01:34:00.304Z,20.81
2023-04-23T01:36:29.390Z,20.82
2023-04-23T01:38:56.638Z,20.81
2023-04-23T01:41:25.417Z,20.81
2023-04-23T01:43:52.052Z,20.81
2023-04-23T01:46:18.810Z,20.80
2023-04-23T01:48:45.615Z,20.80
2023-04-23T01:51:14.434Z,20.81
2023-04-23T01:53:41.040Z,20.81
2023-04-23T01:56:09.852Z,20.80
2023-04-23T01:58:38.724Z,20.81
2023-04-23T02:01:06.704Z,20.79
2023-04-23T02:03:35.977Z,20.78
2023-04-23T02:06:07.348Z,20.79
2023-04-23T02:08:36.138Z,20.79
2023-04-23T02:11:04.957Z,20.79
2023-04-23T02:13:33.909Z,20.77
2023-04-23T02:16:00.600Z,20.77
2023-04-23T02:18:27.278Z,20.77
2023-04-23T02:20:54.319Z,20.78
2023-04-23T02:23:20.963Z,20.77
2023-04-23T02:25:47.758Z,20.77
2023-04-23T02:28:17.331Z,20.77
2023-04-23T02:30:48.337Z,20.77
2023-04-23T02:33:17.249Z,20.72
2023-04-23T02:35:43.899Z,20.77
2023-04-23T02:38:13.383Z,20.76
2023-04-23T02:40:42.369Z,20.73
2023-04-23T02:43:09.094Z,20.75
2023-04-23T02:45:35.810Z,20.74
2023-04-23T02:48:04.600Z,20.75
2023-04-23T02:50:35.161Z,20.74
2023-04-23T02:53:06.616Z,20.74
2023-04-23T02:55:33.290Z,20.73
2023-04-23T02:57:59.962Z,20.73
2023-04-23T03:00:27.141Z,20.73
2023-04-23T03:02:56.113Z,20.73
2023-04-23T03:05:23.142Z,20.72
2023-04-23T03:07:51.879Z,20.73
2023-04-23T03:10:18.595Z,20.71
2023-04-23T03:12:47.660Z,20.73
2023-04-23T03:15:18.119Z,20.71
2023-04-23T03:17:47.257Z,20.71
2023-04-23T03:20:16.559Z,20.72
2023-04-23T03:22:45.954Z,20.71
2023-04-23T03:25:12.613Z,20.72
2023-04-23T03:27:44.632Z,20.71
2023-04-23T03:30:11.647Z,20.69
2023-04-23T03:32:38.804Z,20.71
2023-04-23T03:35:06.168Z,20.70
2023-04-23T03:37:35.292Z,20.70
2023-04-23T03:40:07.830Z,20.69
2023-04-23T03:42:34.691Z,20.69
2023-04-23T03:45:04.217Z,20.69
2023-04-23T03:47:33.961Z,20.68
2023-04-23T03:50:00.694Z,20.70
2023-04-23T03:52:27.334Z,20.67
2023-04-23T03:54:53.933Z,20.64
2023-04-23T03:57:21.302Z,20.67
2023-04-23T03:59:48.010Z,20.67
2023-04-23T04:02:14.861Z,20.66
2023-04-23T04:04:46.222Z,20.65
2023-04-23T04:07:15.842Z,20.66
2023-04-23T04:09:42.467Z,20.66
2023-04-23T04:12:09.231Z,20.65
2023-04-23T04:14:41.839Z,20.66
2023-04-23T04:17:09.237Z,20.65
2023-04-23T04:19:35.998Z,20.66
2023-04-23T04:22:03.750Z,20.66
2023-04-23T04:24:32.638Z,20.65
2023-04-23T04:27:02.498Z,20.65
2023-04-23T04:29:31.226Z,20.64
2023-04-23T04:32:00.445Z,20.65
2023-04-23T04:34:27.780Z,20.64
2023-04-23T04:36:56.635Z,20.63
2023-04-23T04:39:23.409Z,20.64
2023-04-23T04:41:51.303Z,20.65
2023-04-23T04:44:17.965Z,20.63
2023-04-23T04:46:46.778Z,20.64
2023-04-23T04:49:14.182Z,20.65
2023-04-23T04:51:43.594Z,20.65
2023-04-23T04:54:12.379Z,20.64
2023-04-23T04:56:41.330Z,20.64
2023-04-23T04:59:07.997Z,20.65
2023-04-23T05:01:37.969Z,20.64
2023-04-23T05:04:05.140Z,20.64
2023-04-23T05:06:32.590Z,20.65
2023-04-23T05:09:01.512Z,20.64
2023-04-23T05:11:28.216Z,20.64
2023-04-23T05:13:54.887Z,20.65
2023-04-23T05:16:26.776Z,20.63
2023-04-23T05:18:53.477Z,20.60
2023-04-23T05:21:20.196Z,20.64
2023-04-23T05:23:49.910Z,20.65
2023-04-23T05:26:18.786Z,20.65
2023-04-23T05:28:48.159Z,20.65
2023-04-23T05:31:16.976Z,20.64
2023-04-23T05:33:50.489Z,20.66
2023-04-23T05:36:20.745Z,20.66
2023-04-23T05:38:49.875Z,20.66
2023-04-23T05:41:18.668Z,20.63
2023-04-23T05:43:47.597Z,20.67
2023-04-23T05:46:14.451Z,20.68
2023-04-23T05:48:43.490Z,20.67
2023-04-23T05:51:15.499Z,20.67
2023-04-23T05:53:45.357Z,20.67
2023-04-23T05:56:12.060Z,20.68
2023-04-23T05:58:43.670Z,20.68
2023-04-23T06:01:10.561Z,20.67
2023-04-23T06:03:42.011Z,20.66
2023-04-23T06:06:08.782Z,20.67
2023-04-23T06:08:40.313Z,20.69
2023-04-23T06:11:09.232Z,20.70
2023-04-23T06:13:42.989Z,20.71
2023-04-23T06:16:12.607Z,20.71
2023-04-23T06:18:41.496Z,20.72
2023-04-23T06:21:08.526Z,20.74
2023-04-23T06:23:35.571Z,20.75
2023-04-23T06:26:04.335Z,20.78
2023-04-23T06:28:33.770Z,20.78
2023-04-23T06:31:02.710Z,20.81
2023-04-23T06:33:29.729Z,20.82
2023-04-23T06:35:56.518Z,20.82
2023-04-23T06:38:25.305Z,20.84
2023-04-23T06:40:54.950Z,20.89
2023-04-23T06:43:24.225Z,20.93
2023-04-23T06:45:53.933Z,20.95
2023-04-23T06:48:22.222Z,20.98
2023-04-23T06:50:49.197Z,21.00
2023-04-23T06:53:16.104Z,21.03
2023-04-23T06:55:45.776Z,21.06
2023-04-23T06:58:16.183Z,21.09
2023-04-23T07:00:43.280Z,21.10
2023-04-23T07:03:10.095Z,21.11
2023-04-23T07:05:36.982Z,21.13
2023-04-23T07:08:03.744Z,21.15
2023-04-23T07:10:30.635Z,21.16
2023-04-23T07:12:57.482Z,21.19
2023-04-23T07:15:24.540Z,21.23
2023-04-23T07:17:53.487Z,21.24
2023-04-23T07:20:24.903Z,21.25
2023-04-23T07:22:53.868Z,21.28
2023-04-23T07:25:22.599Z,21.29
2023-04-23T07:27:49.398Z,21.32
2023-04-23T07:30:16.358Z,21.31
2023-04-23T07:32:43.581Z,21.36
2023-04-23T07:35:12.516Z,21.41
2023-04-23T07:37:39.231Z,21.43
2023-04-23T07:40:07.870Z,21.43
2023-04-23T07:42:34.613Z,21.42
2023-04-23T07:45:01.465Z,21.43
2023-04-23T07:47:30.590Z,21.45
2023-04-23T07:49:59.665Z,21.43
2023-04-23T07:52:26.342Z,21.39
2023-04-23T07:54:56.112Z,21.42
2023-04-23T07:57:24.970Z,21.44
2023-04-23T07:59:51.899Z,21.45
2023-04-23T08:02:23.709Z,21.46
2023-04-23T08:04:50.764Z,21.48
2023-04-23T08:07:19.800Z,21.39
2023-04-23T08:09:48.655Z,21.37
2023-04-23T08:12:17.457Z,21.39
2023-04-23T08:14:44.637Z,21.39
2023-04-23T08:17:13.645Z,21.40
2023-04-23T08:19:42.917Z,21.39
2023-04-23T08:22:13.489Z,21.36
2023-04-23T08:24:41.037Z,21.38
2023-04-23T08:27:07.754Z,21.41
2023-04-23T08:29:34.389Z,21.41
2023-04-23T08:32:01.112Z,21.43
2023-04-23T08:34:27.904Z,21.40
2023-04-23T08:36:56.690Z,21.38
2023-04-23T08:39:28.076Z,21.39
2023-04-23T08:41:55.516Z,21.40
2023-04-23T08:44:23.625Z,21.41
2023-04-23T08:46:50.367Z,21.44
2023-04-23T08:49:17.970Z,21.48
2023-04-23T08:51:54.126Z,21.46
2023-04-23T08:54:26.953Z,21.45
2023-04-23T08:56:59.980Z,21.50
2023-04-23T08:59:26.766Z,21.53
2023-04-23T09:01:54.129Z,21.55
2023-04-23T09:04:24.830Z,21.52
2023-04-23T09:06:54.262Z,21.48
2023-04-23T09:09:23.811Z,21.48
2023-04-23T09:11:52.210Z,21.55
2023-04-23T09:14:22.581Z,21.59
2023-04-23T09:16:49.395Z,21.61
2023-04-23T09:19:16.168Z,21.65
2023-04-23T09:21:45.099Z,21.67
2023-04-23T09:24:12.240Z,21.70
2023-04-23T09:26:49.810Z,21.69
2023-04-23T09:29:18.590Z,21.72
2023-04-23T09:31:52.350Z,21.69
2023-04-23T09:34:19.396Z,21.71
2023-04-23T09:36:46.876Z,21.63
2023-04-23T09:39:23.177Z,21.61
2023-04-23T09:41:54.082Z,21.58
2023-04-23T09:44:24.317Z,21.63
2023-04-23T09:46:53.590Z,21.65
2023-04-23T09:49:20.575Z,21.73
2023-04-23T09:51:50.467Z,21.73
2023-04-23T09:54:27.371Z,21.71
2023-04-23T09:56:59.582Z,21.71
2023-04-23T09:59:39.505Z,21.70
2023-04-23T10:02:15.799Z,21.69
2023-04-23T10:04:42.885Z,21.70
2023-04-23T10:09:43.741Z,21.71
2023-04-23T10:12:27.746Z,21.70
2023-04-23T10:14:59.808Z,21.72
2023-04-23T10:17:26.509Z,21.72
2023-04-23T10:19:53.200Z,21.68
2023-04-23T10:22:20.403Z,21.69
2023-04-23T10:24:50.478Z,21.66
2023-04-23T10:27:30.822Z,21.66
2023-04-23T10:30:05.505Z,21.64
2023-04-23T10:32:38.059Z,21.57
2023-04-23T10:35:08.882Z,21.57
2023-04-23T10:37:36.602Z,21.64
2023-04-23T10:40:12.509Z,21.66
2023-04-23T10:42:42.906Z,21.65
2023-04-23T10:47:48.561Z,21.63
2023-04-23T10:50:36.046Z,21.61
2023-04-23T10:53:03.137Z,21.60
2023-04-23T10:55:32.650Z,21.59
2023-04-23T10:58:06.231Z,21.59
2023-04-23T11:00:42.114Z,21.61
2023-04-23T11:03:43.610Z,21.63
2023-04-23T11:06:19.702Z,21.60
2023-04-23T11:08:54.078Z,21.59
2023-04-23T11:11:26.331Z,21.59
2023-04-23T11:13:55.730Z,21.58
2023-04-23T11:16:23.299Z,21.56
2023-04-23T11:19:06.532Z,21.54
2023-04-23T11:22:02.159Z,21.51
2023-04-23T11:24:42.881Z,21.50
2023-04-23T11:27:11.615Z,21.49
2023-04-23T11:29:40.126Z,21.45
2023-04-23T11:32:10.934Z,21.41
2023-04-23T11:34:38.577Z,21.42
2023-04-23T11:37:09.901Z,21.42
2023-04-23T11:39:36.887Z,21.40
2023-04-23T11:42:05.300Z,21.40
2023-04-23T11:44:34.267Z,21.38
2023-04-23T11:47:03.520Z,21.37
2023-04-23T11:49:30.258Z,21.40
2023-04-23T11:51:59.445Z,21.39
2023-04-23T11:54:27.616Z,21.36
2023-04-23T11:56:56.745Z,21.38
2023-04-23T11:59:25.606Z,21.30
2023-04-23T12:01:55.334Z,21.36
2023-04-23T12:04:23.850Z,21.36
2023-04-23T12:06:51.276Z,21.36
2023-04-23T12:09:19.383Z,21.36
2023-04-23T12:11:50.922Z,21.37
2023-04-23T12:14:18.365Z,21.36
2023-04-23T12:16:52.434Z,21.35
2023-04-23T12:19:22.249Z,21.33
2023-04-23T12:21:56.066Z,21.33
2023-04-23T12:24:23.756Z,21.34
2023-04-23T12:26:54.650Z,21.28
2023-04-23T12:29:24.498Z,21.31
2023-04-23T12:31:54.870Z,21.30
2023-04-23T12:34:24.158Z,21.26
2023-04-23T12:36:52.210Z,21.28
2023-04-23T12:39:24.453Z,21.27
2023-04-23T12:41:53.101Z,21.27
2023-04-23T12:44:20.507Z,21.26
2023-04-23T12:47:00.307Z,21.21
2023-04-23T12:49:29.752Z,21.21
2023-04-23T12:52:01.469Z,21.22
2023-04-23T12:54:39.736Z,21.21
2023-04-23T12:57:07.428Z,21.20
2023-04-23T12:59:36.384Z,21.18
2023-04-23T13:02:07.003Z,21.17
2023-04-23T13:04:35.432Z,21.16
2023-04-23T13:07:04.488Z,21.14
2023-04-23T13:09:36.072Z,21.17
2023-04-23T13:12:02.891Z,21.15
2023-04-23T13:14:32.007Z,21.15
2023-04-23T13:16:58.690Z,21.13
2023-04-23T13:19:25.592Z,21.13
2023-04-23T13:21:52.358Z,21.17
2023-04-23T13:24:20.171Z,21.15
2023-04-23T13:26:47.292Z,21.16
2023-04-23T13:29:16.349Z,21.15
2023-04-23T13:31:45.589Z,21.14
2023-04-23T13:34:14.547Z,21.15
2023-04-23T13:36:43.952Z,21.17
2023-04-23T13:39:13.375Z,21.16
2023-04-23T13:41:40.845Z,21.16
2023-04-23T13:44:09.747Z,21.15
2023-04-23T13:46:40.240Z,21.14
2023-04-23T13:49:07.853Z,21.15
2023-04-23T13:51:35.784Z,21.14
2023-04-23T13:54:02.948Z,21.13
2023-04-23T13:56:30.560Z,21.13
2023-04-23T13:59:18.460Z,21.11
2023-04-23T14:01:50.263Z,21.11
2023-04-23T14:04:17.811Z,21.10
2023-04-23T14:06:44.535Z,21.08
2023-04-23T14:09:11.461Z,21.05
2023-04-23T14:11:40.288Z,21.07
2023-04-23T14:14:07.599Z,21.08
2023-04-23T14:16:36.478Z,21.08
2023-04-23T14:19:03.212Z,21.07
2023-04-23T14:21:29.932Z,21.06
2023-04-23T14:23:59.519Z,21.04
2023-04-23T14:29:11.080Z,20.97
2023-04-23T14:31:40.660Z,21.00
2023-04-23T14:34:09.570Z,20.93
2023-04-23T14:36:36.438Z,20.78
2023-04-23T14:39:05.037Z,20.73
2023-04-23T14:41:32.836Z,20.67
2023-04-23T14:44:04.800Z,20.56
2023-04-23T14:46:31.513Z,20.51
2023-04-23T14:48:58.152Z,20.50
2023-04-23T14:51:27.489Z,20.46
2023-04-23T14:53:56.439Z,20.42
2023-04-23T14:56:25.653Z,20.47
2023-04-23T14:58:54.461Z,20.41
2023-04-23T15:01:23.298Z,20.39
2023-04-23T15:03:55.180Z,20.34
2023-04-23T15:06:21.992Z,20.32
2023-04-23T15:08:50.783Z,20.31
2023-04-23T15:11:20.117Z,20.27
2023-04-23T15:13:52.869Z,20.26
2023-04-23T15:19:06.414Z,20.24
2023-04-23T15:21:35.325Z,20.19
2023-04-23T15:24:01.946Z,20.24
2023-04-23T15:26:32.736Z,20.25
2023-04-23T15:29:04.980Z,20.17
2023-04-23T15:31:31.781Z,20.22
2023-04-23T15:33:58.562Z,20.19
2023-04-23T15:36:27.360Z,20.16
2023-04-23T15:38:56.191Z,20.15
2023-04-23T15:41:22.878Z,20.15
2023-04-23T15:43:53.837Z,20.10
2023-04-23T15:46:22.737Z,20.06
2023-04-23T15:48:49.404Z,20.02
2023-04-23T15:51:18.222Z,20.10
2023-04-23T15:53:44.931Z,20.14
2023-04-23T15:56:13.779Z,20.16
2023-04-23T15:58:40.619Z,20.14
2023-04-23T16:01:07.587Z,20.11
2023-04-23T16:03:34.713Z,20.14
2023-04-23T16:06:01.843Z,20.12
2023-04-23T16:08:36.235Z,20.13
2023-04-23T16:11:07.101Z,20.11
2023-04-23T16:13:36.090Z,20.13
2023-04-23T16:16:02.775Z,20.15
2023-04-23T16:18:31.852Z,20.14
2023-04-23T16:20:58.911Z,20.13
2023-04-23T16:23:27.904Z,20.10
2023-04-23T16:25:56.801Z,20.09
2023-04-23T16:28:23.442Z,20.08
2023-04-23T16:30:50.315Z,20.09
2023-04-23T16:33:19.720Z,20.01
2023-04-23T16:35:48.765Z,20.01
2023-04-23T16:38:15.652Z,20.06
2023-04-23T16:40:42.635Z,20.03
2023-04-23T16:43:10.459Z,20.02
2023-04-23T16:45:38.834Z,20.07
2023-04-23T16:48:06.861Z,20.04
2023-04-23T16:50:33.729Z,20.02
2023-04-23T16:53:02.843Z,19.99
2023-04-23T16:55:29.517Z,19.95
2023-04-23T16:57:59.472Z,19.97
2023-04-23T17:00:26.273Z,19.96
2023-04-23T17:02:57.773Z,19.98
2023-04-23T17:05:24.699Z,20.05
2023-04-23T17:07:52.845Z,20.02
2023-04-23T17:10:19.749Z,20.04
2023-04-23T17:12:53.902Z,20.01
2023-04-23T17:15:22.840Z,20.04
2023-04-23T17:17:52.973Z,20.01
2023-04-23T17:20:21.801Z,19.97
2023-04-23T17:22:48.540Z,19.99
2023-04-23T17:25:19.927Z,19.99
2023-04-23T17:27:46.873Z,19.95
2023-04-23T17:30:13.851Z,19.97
2023-04-23T17:32:46.060Z,19.95
2023-04-23T17:35:12.899Z,19.97
2023-04-23T17:37:41.657Z,19.96
2023-04-23T17:40:09.793Z,19.94
2023-04-23T17:42:36.424Z,19.94
2023-04-23T17:45:03.470Z,19.95
2023-04-23T17:47:32.358Z,19.91
2023-04-23T17:50:01.218Z,19.92
2023-04-23T17:52:27.961Z,19.97
2023-04-23T17:54:56.808Z,19.99
2023-04-23T17:57:23.557Z,19.98
2023-04-23T17:59:50.149Z,19.95
2023-04-23T18:02:17.179Z,19.90
2023-04-23T18:04:49.322Z,19.99
2023-04-23T18:07:15.969Z,19.99
2023-04-23T18:09:45.005Z,19.92
2023-04-23T18:12:14.038Z,19.88
2023-04-23T18:14:42.903Z,19.91
2023-04-23T18:17:09.688Z,19.95
2023-04-23T18:19:38.602Z,19.94
2023-04-23T18:22:08.273Z,19.90
2023-04-23T18:24:37.191Z,19.94
2023-04-23T18:27:06.275Z,19.94
2023-04-23T18:29:35.218Z,19.97
2023-04-23T18:32:04.198Z,19.97
2023-04-23T18:34:32.641Z,19.98
2023-04-23T18:37:04.512Z,19.94
2023-04-23T18:39:36.649Z,19.97
2023-04-23T18:42:03.491Z,19.96
2023-04-23T18:44:32.404Z,19.96
2023-04-23T18:47:01.172Z,19.91
2023-04-23T18:49:49.727Z,19.92
2023-04-23T18:52:18.915Z,19.92
2023-04-23T18:54:45.887Z,19.93
2023-04-23T18:57:12.607Z,19.98
2023-04-23T18:59:39.578Z,19.98
2023-04-23T19:02:09.107Z,19.96
2023-04-23T19:04:39.110Z,19.94
2023-04-23T19:07:08.679Z,19.93
2023-04-23T19:09:40.553Z,19.90
2023-04-23T19:12:07.339Z,19.88
2023-04-23T19:14:33.987Z,19.91
2023-04-23T19:17:02.914Z,19.90
2023-04-23T19:19:32.073Z,19.90
2023-04-23T19:22:01.066Z,19.92
2023-04-23T19:24:28.994Z,19.89
2023-04-23T19:26:57.935Z,19.88
2023-04-23T19:29:26.952Z,19.90
2023-04-23T19:31:53.626Z,19.93
2023-04-23T19:34:22.461Z,19.93
2023-04-23T19:36:53.785Z,19.92
2023-04-23T19:39:22.706Z,19.92
2023-04-23T19:41:52.618Z,19.93
2023-04-23T19:44:19.304Z,19.93
2023-04-23T19:46:48.474Z,19.97
2023-04-23T19:49:20.619Z,19.99
2023-04-23T19:51:49.495Z,19.98
2023-04-23T19:54:16.223Z,19.96
2023-04-23T19:56:42.864Z,19.92
2023-04-23T19:59:13.951Z,19.94
2023-04-23T20:01:40.974Z,19.94
2023-04-23T20:04:09.915Z,19.97
2023-04-23T20:06:38.802Z,19.99
2023-04-23T20:09:08.523Z,19.99
2023-04-23T20:11:37.865Z,19.99
2023-04-23T20:14:04.593Z,19.96
2023-04-23T20:16:35.984Z,19.94
2023-04-23T20:19:04.929Z,19.96
2023-04-23T20:21:37.694Z,19.98
2023-04-23T20:24:08.965Z,19.91
2023-04-23T20:26:36.273Z,19.88
2023-04-23T20:29:05.194Z,19.87
2023-04-23T20:31:33.989Z,19.91
2023-04-23T20:34:00.939Z,19.89
2023-04-23T20:36:31.747Z,19.91
2023-04-23T20:38:59.318Z,19.90
2023-04-23T20:41:34.375Z,19.86
2023-04-23T20:44:05.022Z,19.86
2023-04-23T20:46:32.386Z,19.83
2023-04-23T20:49:00.879Z,19.85
2023-04-23T20:51:34.438Z,19.88
2023-04-23T20:54:01.839Z,19.82
2023-04-23T20:56:30.787Z,19.86
2023-04-23T20:58:57.871Z,19.82
2023-04-23T21:01:27.371Z,19.82
2023-04-23T21:03:56.841Z,19.85
2023-04-23T21:06:23.673Z,19.89
2023-04-23T21:08:52.536Z,19.91
2023-04-23T21:11:19.740Z,19.92
2023-04-23T21:13:46.568Z,19.91
2023-04-23T21:16:15.486Z,19.90
2023-04-23T21:18:45.353Z,19.93
2023-04-23T21:21:14.314Z,19.93
2023-04-23T21:23:40.980Z,19.96
2023-04-23T21:26:12.912Z,19.92
2023-04-23T21:28:41.721Z,19.94
2023-04-23T21:31:21.578Z,19.94
2023-04-23T21:33:50.402Z,19.94
2023-04-23T21:36:19.310Z,19.94
2023-04-23T21:38:48.188Z,19.94
2023-04-23T21:41:14.892Z,19.97
2023-04-23T21:43:43.772Z,19.95
2023-04-23T21:46:10.433Z,19.96
2023-04-23T21:48:39.229Z,19.98
2023-04-23T21:51:07.850Z,19.97
2023-04-23T21:53:34.598Z,19.98
2023-04-23T21:56:01.258Z,19.97
2023-04-23T21:58:28.002Z,19.97
2023-04-23T22:00:56.971Z,19.98
2023-04-23T22:03:37.991Z,19.99
2023-04-23T22:06:08.643Z,19.97
2023-04-23T22:08:38.160Z,19.98
2023-04-23T22:11:05.821Z,20.00
2023-04-23T22:13:32.437Z,19.99
2023-04-23T22:15:59.408Z,20.01
2023-04-23T22:18:28.813Z,20.12
2023-04-23T22:20:57.967Z,20.17
2023-04-23T22:23:29.379Z,20.18
2023-04-23T22:25:56.174Z,20.15
2023-04-23T22:28:22.848Z,20.21
2023-04-23T22:30:50.049Z,20.22
2023-04-23T22:33:21.391Z,20.18
2023-04-23T22:35:50.298Z,20.26
2023-04-23T22:38:21.919Z,20.28
2023-04-23T22:40:48.590Z,20.28
2023-04-23T22:43:19.977Z,20.28
2023-04-23T22:45:46.590Z,20.29
2023-04-23T22:48:15.903Z,20.32
2023-04-23T22:50:45.795Z,20.33
2023-04-23T22:53:12.530Z,20.34
2023-04-23T22:55:41.912Z,20.33
2023-04-23T22:58:10.703Z,20.31
2023-04-23T23:00:37.415Z,20.36
2023-04-23T23:03:04.200Z,20.38
2023-04-23T23:05:33.066Z,20.38
2023-04-23T23:08:00.044Z,20.39
2023-04-23T23:10:28.904Z,20.39
2023-04-23T23:12:55.596Z,20.42
2023-04-23T23:15:24.494Z,20.41
2023-04-23T23:17:53.915Z,20.41
2023-04-23T23:20:22.978Z,20.44
2023-04-23T23:22:49.664Z,20.38
2023-04-23T23:25:18.472Z,20.40
2023-04-23T23:27:47.698Z,20.42
2023-04-23T23:30:16.728Z,20.45
2023-04-23T23:32:45.700Z,20.45
2023-04-23T23:35:14.630Z,20.45
2023-04-23T23:37:41.401Z,20.45
2023-04-23T23:40:11.320Z,20.48
2023-04-23T23:42:37.993Z,20.48
2023-04-23T23:45:05.188Z,20.48
2023-04-23T23:47:34.278Z,20.47
2023-04-23T23:50:04.043Z,20.47
2023-04-23T23:52:32.925Z,20.50
2023-04-23T23:54:59.612Z,20.48
2023-04-23T23:57:28.560Z,20.48
2023-04-23T23:59:57.419Z,20.49
